New Texas, Pennsylvania
Current Conditions -  °F | °C
As of 5:55 AM on Wednesday 22 Oct 2014 (Local Time) from KMQS Reporting Station
Light Rain Light Rain  
Wind Chill: 52°   Ceiling: 800
Heat Index: 52°   Visibility: 9mi
Dew Point: 50°   Wind: 8mph
Humidity: 94%   Direction: 10°N
Pressure: 29.88"   Gusts: NA
Location:  39.7675°N, 76.1818°W
Report Text: KMQS 220955Z AUTO 01007KT 9SM -RA OVC008 11/10 A2988 RMK AO2
Loading
Personal Weather Stations






























Interactive Weather Map
Tropical Storm Tracking
New forecast layout! Learn more

10-Day Weather Forecast

Advertisements
Track Severe Weather on mobile